Private Wetterstation Sandau
Wetterdaten: Sonntag, 26.02.2012
Datum Zeit Temp. A. Feuchte A. Luftdruck Regen Wind Richtung Richtung Taupunkt Windchill
26.02.2012 00:02 5,5 C 82 % 1017,3 hPa 0,0 l/m 16,9 km/h (3 Bft) W 270 2,7 C 2,1 C
26.02.2012 00:07 5,5 C 82 % 1017,2 hPa 0,0 l/m 12,2 km/h (2 Bft) W-NW 292 2,7 C 2,8 C
26.02.2012 00:12 5,5 C 83 % 1017,4 hPa 0,0 l/m 10,1 km/h (2 Bft) W 270 2,8 C 3,2 C
26.02.2012 00:17 5,4 C 83 % 1017,1 hPa 0,0 l/m 9,4 km/h (2 Bft) NW 315 2,7 C 3,3 C
26.02.2012 00:22 5,3 C 83 % 1017,2 hPa 0,0 l/m 9,4 km/h (2 Bft) W 270 2,7 C 3,1 C
26.02.2012 00:27 5,3 C 83 % 1017,1 hPa 0,0 l/m 13,0 km/h (3 Bft) W 270 2,7 C 2,4 C
26.02.2012 00:32 5,3 C 84 % 1017,1 hPa 0,0 l/m 8,6 km/h (2 Bft) W-NW 292 2,8 C 3,3 C
26.02.2012 00:37 5,3 C 84 % 1017,1 hPa 0,5 l/m 10,8 km/h (2 Bft) W-NW 292 2,8 C 2,9 C
26.02.2012 00:42 5,3 C 84 % 1017,2 hPa 0,0 l/m 10,8 km/h (2 Bft) SW 225 2,8 C 2,9 C
26.02.2012 00:47 5,2 C 85 % 1017,1 hPa 0,0 l/m 19,8 km/h (3 Bft) W 270 2,9 C 1,3 C
26.02.2012 00:52 5,3 C 85 % 1017,3 hPa 0,0 l/m 14,8 km/h (3 Bft) W 270 3,0 C 2,1 C
26.02.2012 00:57 5,3 C 85 % 1017,1 hPa 0,0 l/m 10,8 km/h (2 Bft) N-NW 337 3,0 C 2,9 C
26.02.2012 01:02 5,2 C 85 % 1017,2 hPa 0,0 l/m 16,9 km/h (3 Bft) W-NW 292 2,9 C 1,7 C
26.02.2012 01:07 5,2 C 85 % 1017,2 hPa 0,0 l/m 15,5 km/h (3 Bft) W-NW 292 2,9 C 1,9 C
26.02.2012 01:12 5,3 C 85 % 1017,4 hPa 0,0 l/m 27,7 km/h (4 Bft) NW 315 3,0 C 0,6 C
26.02.2012 01:17 5,2 C 86 % 1017,4 hPa 0,5 l/m 7,2 km/h (2 Bft) W-SW 247 3,1 C 3,6 C
26.02.2012 01:22 5,2 C 86 % 1017,2 hPa 0,5 l/m 4,0 km/h (1 Bft) NW 315 3,1 C 5,2 C
26.02.2012 01:27 5,1 C 86 % 1017,2 hPa 0,0 l/m 21,6 km/h (4 Bft) W-NW 292 3,0 C 1,0 C
26.02.2012 01:32 5,1 C 86 % 1017,4 hPa 0,5 l/m 12,2 km/h (2 Bft) W-NW 292 3,0 C 2,3 C
26.02.2012 01:37 5,1 C 86 % 1017,3 hPa 0,0 l/m 8,6 km/h (2 Bft) NW 315 3,0 C 3,1 C
26.02.2012 01:42 5,1 C 86 % 1017,3 hPa 0,5 l/m 11,9 km/h (2 Bft) W 270 3,0 C 2,4 C
26.02.2012 01:47 5,1 C 87 % 1017,4 hPa 0,0 l/m 6,8 km/h (2 Bft) W 270 3,1 C 3,6 C
26.02.2012 01:52 5,1 C 87 % 1017,1 hPa 0,0 l/m 6,8 km/h (2 Bft) W 270 3,1 C 3,6 C
26.02.2012 01:57 5,1 C 87 % 1017,3 hPa 0,0 l/m 4,7 km/h (1 Bft) W 270 3,1 C 4,3 C
26.02.2012 02:02 5,1 C 87 % 1017,3 hPa 0,0 l/m 2,9 km/h (1 Bft) NW 315 3,1 C 5,1 C
26.02.2012 02:07 5,0 C 87 % 1017,5 hPa 1,0 l/m 9,4 km/h (2 Bft) NO 45 3,0 C 2,8 C
26.02.2012 02:12 4,8 C 87 % 1017,5 hPa 0,5 l/m 8,3 km/h (2 Bft) NO 45 2,8 C 2,8 C
26.02.2012 02:17 4,3 C 86 % 1017,6 hPa 0,5 l/m 12,2 km/h (2 Bft) N-NO 22 2,2 C 1,4 C
26.02.2012 02:22 4,1 C 87 % 1017,4 hPa 0,5 l/m 5,8 km/h (2 Bft) N-NO 22 2,1 C 2,8 C
26.02.2012 02:27 3,9 C 87 % 1017,3 hPa 0,0 l/m 15,1 km/h (3 Bft) N 360 1,9 C 0,4 C
26.02.2012 02:32 3,9 C 88 % 1017,4 hPa 0,5 l/m 7,6 km/h (2 Bft) N 360 2,1 C 2,0 C
26.02.2012 02:37 3,8 C 88 % 1017,5 hPa 0,5 l/m 6,1 km/h (2 Bft) NO 45 2,0 C 2,3 C
26.02.2012 02:42 3,8 C 88 % 1017,5 hPa 0,0 l/m 7,6 km/h (2 Bft) N-NO 22 2,0 C 1,8 C
26.02.2012 02:47 3,6 C 88 % 1017,4 hPa 0,0 l/m 6,5 km/h (2 Bft) O-NO 67 1,8 C 1,9 C
26.02.2012 02:52 3,6 C 89 % 1017,4 hPa 0,0 l/m 9,0 km/h (2 Bft) N-NO 22 2,0 C 1,2 C
26.02.2012 02:57 3,6 C 89 % 1017,4 hPa 0,0 l/m 4,7 km/h (1 Bft) N 360 2,0 C 2,6 C
26.02.2012 03:02 3,6 C 89 % 1017,4 hPa 0,0 l/m 2,5 km/h (1 Bft) N-NO 22 2,0 C 3,6 C
26.02.2012 03:07 3,5 C 89 % 1017,5 hPa 0,0 l/m 6,1 km/h (2 Bft) N-NW 337 1,9 C 2,0 C
26.02.2012 03:12 3,5 C 89 % 1017,4 hPa 0,0 l/m 2,5 km/h (1 Bft) N 360 1,9 C 3,5 C
26.02.2012 03:17 3,5 C 89 % 1017,2 hPa 0,0 l/m 4,0 km/h (1 Bft) N-NO 22 1,9 C 3,5 C
26.02.2012 03:22 3,5 C 89 % 1017,3 hPa 0,0 l/m 4,0 km/h (1 Bft) N-NO 22 1,9 C 3,5 C
26.02.2012 03:27 3,5 C 89 % 1017,4 hPa 0,5 l/m 2,9 km/h (1 Bft) N-NO 22 1,9 C 3,5 C
26.02.2012 03:32 3,5 C 89 % 1017,4 hPa 0,0 l/m 2,5 km/h (1 Bft) N-NW 337 1,9 C 3,5 C
26.02.2012 03:37 3,5 C 89 % 1017,4 hPa 0,0 l/m 5,8 km/h (2 Bft) W-NW 292 1,9 C 2,1 C
26.02.2012 03:42 3,6 C 89 % 1017,4 hPa 0,0 l/m 4,3 km/h (1 Bft) W-NW 292 2,0 C 3,6 C
26.02.2012 03:47 3,6 C 89 % 1017,3 hPa 0,0 l/m 3,6 km/h (1 Bft) W-NW 292 2,0 C 3,6 C
26.02.2012 03:52 3,6 C 89 % 1017,3 hPa 0,0 l/m 6,5 km/h (2 Bft) W-NW 292 2,0 C 1,9 C
26.02.2012 03:57 3,8 C 90 % 1017,4 hPa 0,5 l/m 4,7 km/h (1 Bft) W-NW 292 2,3 C 2,8 C
26.02.2012 04:02 3,8 C 90 % 1017,3 hPa 0,0 l/m 6,5 km/h (2 Bft) W-NW 292 2,3 C 2,2 C
26.02.2012 04:07 3,9 C 90 % 1017,2 hPa 0,0 l/m 11,5 km/h (2 Bft) W-NW 292 2,4 C 1,0 C
26.02.2012 04:12 3,9 C 90 % 1017,2 hPa 0,0 l/m 11,2 km/h (2 Bft) NW 315 2,4 C 1,1 C
26.02.2012 04:17 4,1 C 90 % 1017,2 hPa 0,0 l/m 12,2 km/h (2 Bft) W-NW 292 2,6 C 1,1 C
26.02.2012 04:22 4,1 C 90 % 1017,3 hPa 0,0 l/m 12,2 km/h (2 Bft) W 270 2,6 C 1,1 C
26.02.2012 04:27 4,2 C 90 % 1017,3 hPa 0,0 l/m 10,8 km/h (2 Bft) NW 315 2,7 C 1,5 C
26.02.2012 04:32 4,3 C 90 % 1017,3 hPa 0,0 l/m 10,1 km/h (2 Bft) NW 315 2,8 C 1,8 C
26.02.2012 04:37 4,3 C 90 % 1017,3 hPa 0,0 l/m 14,0 km/h (3 Bft) W 270 2,8 C 1,0 C
26.02.2012 04:42 4,3 C 90 % 1017,4 hPa 0,0 l/m 4,0 km/h (1 Bft) W 270 2,8 C 4,3 C
26.02.2012 04:47 4,3 C 90 % 1017,4 hPa 0,0 l/m 18,7 km/h (3 Bft) W-NW 292 2,8 C 0,4 C
26.02.2012 04:52 4,3 C 90 % 1017,4 hPa 0,0 l/m 7,9 km/h (2 Bft) W 270 2,8 C 2,3 C
26.02.2012 04:57 4,4 C 90 % 1017,5 hPa 0,0 l/m 11,9 km/h (2 Bft) NW 315 2,9 C 1,5 C
26.02.2012 05:02 4,4 C 90 % 1017,4 hPa 0,0 l/m 7,6 km/h (2 Bft) W 270 2,9 C 2,5 C
26.02.2012 05:07 4,4 C 90 % 1017,5 hPa 0,0 l/m 5,4 km/h (1 Bft) W-NW 292 2,9 C 3,2 C
26.02.2012 05:12 4,4 C 90 % 1017,6 hPa 0,0 l/m 11,9 km/h (2 Bft) NW 315 2,9 C 1,5 C
26.02.2012 05:17 4,3 C 90 % 1017,5 hPa 0,0 l/m 6,5 km/h (2 Bft) N-NW 337 2,8 C 2,8 C
26.02.2012 05:22 4,3 C 90 % 1017,6 hPa 0,0 l/m 15,8 km/h (3 Bft) N-NW 337 2,8 C 0,8 C
26.02.2012 05:27 4,2 C 90 % 1017,8 hPa 0,0 l/m 7,9 km/h (2 Bft) NW 315 2,7 C 2,2 C
26.02.2012 05:32 4,2 C 90 % 1017,6 hPa 0,0 l/m 7,6 km/h (2 Bft) W 270 2,7 C 2,3 C
26.02.2012 05:37 4,1 C 89 % 1017,5 hPa 0,0 l/m 9,7 km/h (2 Bft) W-NW 292 2,5 C 1,7 C
26.02.2012 05:42 4,1 C 89 % 1017,6 hPa 0,0 l/m 9,0 km/h (2 Bft) NW 315 2,5 C 1,8 C
26.02.2012 05:47 4,1 C 89 % 1017,5 hPa 0,0 l/m 7,9 km/h (2 Bft) W-NW 292 2,5 C 2,1 C
26.02.2012 05:52 3,9 C 89 % 1017,5 hPa 0,0 l/m 2,5 km/h (1 Bft) N-NO 22 2,3 C 3,9 C
26.02.2012 05:57 3,9 C 89 % 1017,8 hPa 0,0 l/m 4,7 km/h (1 Bft) NO 45 2,3 C 3,0 C
26.02.2012 06:02 3,9 C 89 % 1017,8 hPa 0,0 l/m 2,2 km/h (1 Bft) N 360 2,3 C 3,9 C
26.02.2012 06:07 3,9 C 90 % 1017,8 hPa 0,0 l/m 0,0 km/h (0 Bft) NW 315 2,4 C 3,9 C
26.02.2012 06:12 3,9 C 90 % 1017,9 hPa 0,0 l/m 4,3 km/h (1 Bft) NO 45 2,4 C 3,9 C
26.02.2012 06:17 3,9 C 90 % 1017,9 hPa 0,0 l/m 4,0 km/h (1 Bft) NW 315 2,4 C 3,9 C
26.02.2012 06:22 3,9 C 90 % 1017,9 hPa 0,0 l/m 4,3 km/h (1 Bft) NW 315 2,4 C 3,9 C
26.02.2012 06:27 3,9 C 89 % 1018,0 hPa 0,0 l/m 3,2 km/h (1 Bft) W-NW 292 2,3 C 3,9 C
26.02.2012 06:32 3,8 C 89 % 1018,2 hPa 0,0 l/m 2,2 km/h (1 Bft) NW 315 2,2 C 3,8 C
26.02.2012 06:37 3,8 C 89 % 1018,3 hPa 0,0 l/m 0,0 km/h (0 Bft) W-NW 292 2,2 C 3,8 C
26.02.2012 06:42 3,8 C 89 % 1018,2 hPa 0,0 l/m 6,5 km/h (2 Bft) W 270 2,2 C 2,2 C
26.02.2012 06:47 3,8 C 89 % 1018,0 hPa 0,0 l/m 7,6 km/h (2 Bft) W-NW 292 2,2 C 1,8 C
26.02.2012 06:52 3,9 C 89 % 1018,3 hPa 0,0 l/m 1,4 km/h (1 Bft) NW 315 2,3 C 3,9 C
26.02.2012 06:57 3,9 C 90 % 1018,3 hPa 0,0 l/m 0,0 km/h (0 Bft) W 270 2,4 C 3,9 C
26.02.2012 07:02 3,9 C 90 % 1018,4 hPa 0,0 l/m 5,8 km/h (2 Bft) NW 315 2,4 C 2,5 C
26.02.2012 07:07 3,9 C 90 % 1018,6 hPa 0,0 l/m 3,2 km/h (1 Bft) N-NO 22 2,4 C 3,9 C
26.02.2012 07:12 3,9 C 90 % 1018,7 hPa 0,0 l/m 4,0 km/h (1 Bft) NO 45 2,4 C 3,9 C
26.02.2012 07:17 3,9 C 90 % 1019,0 hPa 0,0 l/m 4,0 km/h (1 Bft) W-NW 292 2,4 C 3,9 C
26.02.2012 07:22 3,9 C 90 % 1018,7 hPa 0,0 l/m 2,9 km/h (1 Bft) N 360 2,4 C 3,9 C
26.02.2012 07:27 3,9 C 90 % 1018,9 hPa 0,0 l/m 6,5 km/h (2 Bft) N-NW 337 2,4 C 2,3 C
26.02.2012 07:32 3,9 C 90 % 1019,0 hPa 0,0 l/m 3,2 km/h (1 Bft) NO 45 2,4 C 3,9 C
26.02.2012 07:37 3,9 C 90 % 1019,2 hPa 0,0 l/m 2,2 km/h (1 Bft) N-NW 337 2,4 C 3,9 C
26.02.2012 07:42 3,9 C 90 % 1019,1 hPa 0,0 l/m 4,0 km/h (1 Bft) N-NW 337 2,4 C 3,9 C
26.02.2012 07:47 3,9 C 90 % 1019,2 hPa 0,0 l/m 2,2 km/h (1 Bft) N-NO 22 2,4 C 3,9 C
26.02.2012 07:52 3,9 C 90 % 1019,3 hPa 0,0 l/m 5,4 km/h (1 Bft) N 360 2,4 C 2,7 C
26.02.2012 07:57 3,9 C 90 % 1019,6 hPa 0,0 l/m 4,7 km/h (1 Bft) NO 45 2,4 C 3,0 C
26.02.2012 08:02 3,9 C 90 % 1019,5 hPa 0,0 l/m 9,7 km/h (2 Bft) N 360 2,4 C 1,4 C
26.02.2012 08:07 3,9 C 90 % 1019,6 hPa 0,0 l/m 3,6 km/h (1 Bft) N-NO 22 2,4 C 3,9 C
26.02.2012 08:12 3,9 C 90 % 1019,7 hPa 0,0 l/m 4,0 km/h (1 Bft) N-NW 337 2,4 C 3,9 C
26.02.2012 08:17 3,9 C 90 % 1019,8 hPa 0,0 l/m 11,2 km/h (2 Bft) O-NO 67 2,4 C 1,1 C
26.02.2012 08:22 3,9 C 90 % 1019,9 hPa 0,0 l/m 7,6 km/h (2 Bft) NW 315 2,4 C 2,0 C
26.02.2012 08:27 3,9 C 90 % 1020,1 hPa 0,0 l/m 6,8 km/h (2 Bft) W-NW 292 2,4 C 2,2 C
26.02.2012 08:32 4,0 C 89 % 1020,1 hPa 0,0 l/m 3,6 km/h (1 Bft) N-NW 337 2,4 C 4,0 C
26.02.2012 08:37 4,1 C 89 % 1020,1 hPa 0,0 l/m 6,1 km/h (2 Bft) NW 315 2,5 C 2,7 C
26.02.2012 08:42 4,0 C 88 % 1020,2 hPa 0,0 l/m 10,1 km/h (2 Bft) N 360 2,2 C 1,4 C
26.02.2012 08:47 4,1 C 87 % 1020,2 hPa 0,0 l/m 4,3 km/h (1 Bft) N 360 2,1 C 4,1 C
26.02.2012 08:52 4,1 C 86 % 1020,3 hPa 0,0 l/m 10,1 km/h (2 Bft) NO 45 2,0 C 1,6 C
26.02.2012 08:57 4,1 C 86 % 1020,4 hPa 0,0 l/m 10,1 km/h (2 Bft) NO 45 2,0 C 1,6 C
26.02.2012 09:02 4,1 C 85 % 1020,4 hPa 0,0 l/m 4,0 km/h (1 Bft) NW 315 1,8 C 4,1 C
26.02.2012 09:07 4,1 C 85 % 1020,4 hPa 0,0 l/m 7,2 km/h (2 Bft) O 90 1,8 C 2,3 C
26.02.2012 09:12 4,1 C 85 % 1020,5 hPa 0,0 l/m 7,2 km/h (2 Bft) N 360 1,8 C 2,3 C
26.02.2012 09:17 4,1 C 85 % 1020,6 hPa 0,0 l/m 13,0 km/h (3 Bft) NO 45 1,8 C 1,0 C
26.02.2012 09:22 4,2 C 85 % 1020,6 hPa 0,0 l/m 4,0 km/h (1 Bft) NO 45 1,9 C 4,2 C
26.02.2012 09:27 4,2 C 85 % 1020,7 hPa 0,0 l/m 5,8 km/h (2 Bft) O-NO 67 1,9 C 2,9 C
26.02.2012 09:32 4,3 C 85 % 1020,6 hPa 0,0 l/m 6,1 km/h (2 Bft) N-NO 22 2,0 C 2,9 C
26.02.2012 09:37 4,4 C 85 % 1020,8 hPa 0,0 l/m 10,8 km/h (2 Bft) N 360 2,1 C 1,8 C
26.02.2012 09:42 4,5 C 84 % 1021,0 hPa 0,0 l/m 8,6 km/h (2 Bft) N-NO 22 2,0 C 2,4 C
26.02.2012 09:47 4,6 C 84 % 1021,0 hPa 0,0 l/m 6,1 km/h (2 Bft) N 360 2,1 C 3,2 C
26.02.2012 09:52 4,6 C 83 % 1021,0 hPa 0,0 l/m 12,6 km/h (3 Bft) N-NO 22 2,0 C 1,7 C
26.02.2012 09:57 4,6 C 83 % 1021,0 hPa 0,0 l/m 11,2 km/h (2 Bft) NO 45 2,0 C 1,9 C
26.02.2012 10:02 4,8 C 83 % 1021,2 hPa 0,0 l/m 14,0 km/h (3 Bft) NO 45 2,2 C 1,7 C
26.02.2012 10:07 4,9 C 82 % 1021,2 hPa 0,0 l/m 8,6 km/h (2 Bft) N-NO 22 2,1 C 2,9 C
26.02.2012 10:12 4,9 C 82 % 1021,2 hPa 0,0 l/m 6,8 km/h (2 Bft) N 360 2,1 C 3,4 C
26.02.2012 10:17 4,9 C 82 % 1021,5 hPa 0,0 l/m 9,4 km/h (2 Bft) N 360 2,1 C 2,7 C
26.02.2012 10:22 5,0 C 82 % 1021,4 hPa 0,0 l/m 8,3 km/h (2 Bft) NO 45 2,2 C 3,1 C
26.02.2012 10:27 5,1 C 82 % 1021,5 hPa 0,0 l/m 6,1 km/h (2 Bft) O-NO 67 2,3 C 3,8 C
26.02.2012 10:32 5,2 C 82 % 1021,5 hPa 0,0 l/m 7,6 km/h (2 Bft) N-NW 337 2,4 C 3,5 C
26.02.2012 10:37 5,3 C 81 % 1021,6 hPa 0,0 l/m 10,8 km/h (2 Bft) NW 315 2,3 C 2,9 C
26.02.2012 10:42 5,3 C 79 % 1021,5 hPa 0,0 l/m 9,0 km/h (2 Bft) NO 45 2,0 C 3,2 C
26.02.2012 10:47 5,4 C 79 % 1021,5 hPa 0,0 l/m 5,4 km/h (1 Bft) NO 45 2,1 C 4,4 C
26.02.2012 10:52 5,3 C 77 % 1021,9 hPa 0,0 l/m 6,8 km/h (2 Bft) N-NO 22 1,6 C 3,8 C
26.02.2012 10:57 5,3 C 77 % 1021,9 hPa 0,0 l/m 11,2 km/h (2 Bft) NO 45 1,6 C 2,8 C
26.02.2012 11:02 5,3 C 76 % 1021,9 hPa 0,0 l/m 13,0 km/h (3 Bft) N 360 1,4 C 2,4 C
26.02.2012 11:07 5,3 C 75 % 1022,1 hPa 0,0 l/m 19,1 km/h (3 Bft) NO 45 1,2 C 1,6 C
26.02.2012 11:12 5,3 C 74 % 1022,1 hPa 0,0 l/m 9,4 km/h (2 Bft) N-NO 22 1,0 C 3,1 C
26.02.2012 11:17 5,4 C 73 % 1022,3 hPa 0,0 l/m 12,6 km/h (3 Bft) NO 45 1,0 C 2,6 C
26.02.2012 11:22 5,5 C 74 % 1022,3 hPa 0,0 l/m 7,9 km/h (2 Bft) NO 45 1,2 C 3,7 C
26.02.2012 11:27 5,6 C 73 % 1022,5 hPa 0,0 l/m 9,4 km/h (2 Bft) N 360 1,2 C 3,5 C
26.02.2012 11:32 5,6 C 71 % 1022,6 hPa 0,0 l/m 16,6 km/h (3 Bft) N 360 0,8 C 2,3 C
26.02.2012 11:37 5,6 C 71 % 1022,6 hPa 0,0 l/m 12,2 km/h (2 Bft) O-NO 67 0,8 C 2,9 C
26.02.2012 11:42 5,6 C 70 % 1022,6 hPa 0,0 l/m 3,2 km/h (1 Bft) NO 45 0,6 C 5,6 C
26.02.2012 11:47 5,7 C 69 % 1022,6 hPa 0,0 l/m 19,1 km/h (3 Bft) NO 45 0,5 C 2,1 C
26.02.2012 11:52 5,8 C 67 % 1022,7 hPa 0,0 l/m 10,8 km/h (2 Bft) N-NO 22 0,2 C 3,5 C
26.02.2012 11:57 5,9 C 67 % 1022,6 hPa 0,0 l/m 7,2 km/h (2 Bft) NW 315 0,3 C 4,4 C
26.02.2012 12:02 5,9 C 67 % 1022,6 hPa 0,0 l/m 0,0 km/h (0 Bft) W-NW 292 0,3 C 5,9 C
26.02.2012 12:07 6,1 C 66 % 1022,7 hPa 0,0 l/m 3,2 km/h (1 Bft) O-NO 67 0,2 C 6,1 C
26.02.2012 12:12 6,1 C 68 % 1022,7 hPa 0,0 l/m 6,1 km/h (2 Bft) N-NO 22 0,6 C 5,0 C
26.02.2012 12:17 6,1 C 64 % 1022,6 hPa 0,0 l/m 12,2 km/h (2 Bft) N 360 -0,2 C 3,6 C
26.02.2012 12:22 6,1 C 63 % 1022,7 hPa 0,0 l/m 9,4 km/h (2 Bft) NO 45 -0,4 C 4,1 C
26.02.2012 12:27 6,1 C 62 % 1022,7 hPa 0,0 l/m 12,2 km/h (2 Bft) N 360 -0,6 C 3,6 C
26.02.2012 12:32 6,3 C 63 % 1022,8 hPa 0,0 l/m 6,1 km/h (2 Bft) N 360 -0,2 C 5,2 C
26.02.2012 12:37 6,3 C 63 % 1022,9 hPa 0,0 l/m 5,4 km/h (1 Bft) W-NW 292 -0,2 C 5,4 C
26.02.2012 12:42 6,4 C 63 % 1022,9 hPa 0,0 l/m 3,2 km/h (1 Bft) NO 45 -0,1 C 6,4 C
26.02.2012 12:47 6,4 C 58 % 1022,9 hPa 0,0 l/m 14,0 km/h (3 Bft) N-NO 22 -1,2 C 3,6 C
26.02.2012 12:52 6,4 C 59 % 1023,1 hPa 0,0 l/m 8,3 km/h (2 Bft) N-NO 22 -1,0 C 4,7 C
26.02.2012 12:57 6,4 C 61 % 1022,9 hPa 0,0 l/m 2,9 km/h (1 Bft) N 360 -0,6 C 6,4 C
26.02.2012 13:02 6,5 C 62 % 1023,0 hPa 0,0 l/m 2,2 km/h (1 Bft) O-NO 67 -0,2 C 6,5 C
26.02.2012 13:07 6,5 C 61 % 1023,2 hPa 0,0 l/m 6,5 km/h (2 Bft) N-NO 22 -0,5 C 5,3 C
26.02.2012 13:12 6,6 C 61 % 1022,9 hPa 0,0 l/m 9,0 km/h (2 Bft) N-NO 22 -0,4 C 4,8 C
26.02.2012 13:17 6,8 C 60 % 1023,0 hPa 0,0 l/m 5,0 km/h (1 Bft) NO 45 -0,4 C 6,1 C
26.02.2012 13:22 6,8 C 59 % 1022,9 hPa 0,0 l/m 10,8 km/h (2 Bft) NO 45 -0,6 C 4,7 C
26.02.2012 13:27 6,9 C 60 % 1023,1 hPa 0,0 l/m 8,6 km/h (2 Bft) N-NO 22 -0,3 C 5,2 C
26.02.2012 13:32 6,9 C 58 % 1022,9 hPa 0,0 l/m 8,6 km/h (2 Bft) NO 45 -0,8 C 5,2 C
26.02.2012 13:37 6,8 C 55 % 1023,1 hPa 0,0 l/m 4,7 km/h (1 Bft) O-NO 67 -1,6 C 6,2 C
26.02.2012 13:42 6,9 C 51 % 1023,3 hPa 0,0 l/m 7,6 km/h (2 Bft) NO 45 -2,5 C 5,5 C
26.02.2012 13:47 6,9 C 49 % 1023,3 hPa 0,0 l/m 18,0 km/h (3 Bft) N-NO 22 -3,1 C 3,7 C
26.02.2012 13:52 6,9 C 50 % 1023,1 hPa 0,0 l/m 8,6 km/h (2 Bft) NO 45 -2,8 C 5,2 C
26.02.2012 13:57 7,0 C 50 % 1023,0 hPa 0,0 l/m 3,2 km/h (1 Bft) N-NO 22 -2,7 C 7,0 C
26.02.2012 14:02 7,1 C 45 % 1023,3 hPa 0,0 l/m 12,6 km/h (3 Bft) NO 45 -4,0 C 4,7 C
26.02.2012 14:07 7,1 C 47 % 1023,2 hPa 0,0 l/m 16,6 km/h (3 Bft) N-NO 22 -3,4 C 4,1 C
26.02.2012 14:12 7,0 C 46 % 1023,3 hPa 0,0 l/m 8,3 km/h (2 Bft) O-NO 67 -3,8 C 5,4 C
26.02.2012 14:17 7,1 C 49 % 1023,3 hPa 0,0 l/m 5,8 km/h (2 Bft) O-NO 67 -2,9 C 6,2 C
26.02.2012 14:22 7,2 C 47 % 1023,3 hPa 0,0 l/m 18,4 km/h (3 Bft) N-NO 22 -3,3 C 4,0 C
26.02.2012 14:27 7,2 C 47 % 1023,3 hPa 0,0 l/m 7,2 km/h (2 Bft) O-NO 67 -3,3 C 5,9 C
26.02.2012 14:32 7,0 C 46 % 1023,3 hPa 0,0 l/m 8,6 km/h (2 Bft) N-NW 337 -3,8 C 5,3 C
26.02.2012 14:37 7,0 C 48 % 1023,4 hPa 0,0 l/m 12,6 km/h (3 Bft) N-NO 22 -3,2 C 4,6 C
26.02.2012 14:42 6,9 C 47 % 1023,5 hPa 0,0 l/m 11,9 km/h (2 Bft) NO 45 -3,6 C 4,6 C
26.02.2012 14:47 6,9 C 48 % 1023,5 hPa 0,0 l/m 6,1 km/h (2 Bft) O-NO 67 -3,3 C 5,9 C
26.02.2012 14:52 6,9 C 47 % 1023,6 hPa 0,0 l/m 12,2 km/h (2 Bft) NO 45 -3,6 C 4,5 C
26.02.2012 14:57 6,9 C 47 % 1023,7 hPa 0,0 l/m 11,9 km/h (2 Bft) N-NO 22 -3,6 C 4,6 C
26.02.2012 15:02 6,9 C 47 % 1023,6 hPa 0,0 l/m 10,1 km/h (2 Bft) NO 45 -3,6 C 4,9 C
26.02.2012 15:07 7,1 C 49 % 1023,7 hPa 0,0 l/m 12,2 km/h (2 Bft) N-NO 22 -2,9 C 4,8 C
26.02.2012 15:12 7,2 C 50 % 1023,7 hPa 0,0 l/m 2,5 km/h (1 Bft) W-SW 247 -2,5 C 7,2 C
26.02.2012 15:17 7,3 C 49 % 1023,6 hPa 0,0 l/m 5,8 km/h (2 Bft) N-NO 22 -2,7 C 6,4 C
26.02.2012 15:22 7,3 C 48 % 1023,8 hPa 0,0 l/m 18,4 km/h (3 Bft) N-NO 22 -3,0 C 4,2 C
26.02.2012 15:27 7,2 C 48 % 1023,6 hPa 0,0 l/m 3,6 km/h (1 Bft) N 360 -3,1 C 7,2 C
26.02.2012 15:32 7,2 C 46 % 1023,7 hPa 0,0 l/m 9,4 km/h (2 Bft) NW 315 -3,6 C 5,4 C
26.02.2012 15:37 7,2 C 46 % 1023,9 hPa 0,0 l/m 12,2 km/h (2 Bft) N-NO 22 -3,6 C 4,9 C
26.02.2012 15:42 7,1 C 45 % 1023,7 hPa 0,0 l/m 8,3 km/h (2 Bft) N-NO 22 -4,0 C 5,5 C
26.02.2012 15:47 7,0 C 45 % 1023,8 hPa 0,0 l/m 11,9 km/h (2 Bft) W-NW 292 -4,1 C 4,7 C
26.02.2012 15:52 6,9 C 46 % 1023,7 hPa 0,0 l/m 6,1 km/h (2 Bft) N-NO 22 -3,9 C 5,9 C
26.02.2012 15:57 6,9 C 46 % 1023,7 hPa 0,0 l/m 11,9 km/h (2 Bft) N-NO 22 -3,9 C 4,6 C
26.02.2012 16:02 6,9 C 45 % 1023,8 hPa 0,0 l/m 7,2 km/h (2 Bft) NO 45 -4,2 C 5,6 C
26.02.2012 16:07 6,8 C 44 % 1023,9 hPa 0,0 l/m 15,1 km/h (3 Bft) N-NW 337 -4,6 C 4,0 C
26.02.2012 16:12 6,8 C 46 % 1023,9 hPa 0,0 l/m 19,1 km/h (3 Bft) NO 45 -4,0 C 3,4 C
26.02.2012 16:17 6,7 C 45 % 1023,9 hPa 0,0 l/m 6,8 km/h (2 Bft) N-NO 22 -4,4 C 5,4 C
26.02.2012 16:22 6,6 C 44 % 1024,0 hPa 0,0 l/m 8,6 km/h (2 Bft) O-NO 67 -4,8 C 4,9 C
26.02.2012 16:27 6,5 C 44 % 1024,0 hPa 0,0 l/m 6,5 km/h (2 Bft) NO 45 -4,9 C 5,3 C
26.02.2012 16:32 6,4 C 44 % 1024,0 hPa 0,0 l/m 6,5 km/h (2 Bft) N-NO 22 -4,9 C 5,2 C
26.02.2012 16:37 6,4 C 44 % 1024,0 hPa 0,0 l/m 7,9 km/h (2 Bft) NO 45 -4,9 C 4,8 C
26.02.2012 16:42 6,4 C 43 % 1024,2 hPa 0,0 l/m 8,3 km/h (2 Bft) N 360 -5,2 C 4,7 C
26.02.2012 16:47 6,2 C 41 % 1024,2 hPa 0,0 l/m 4,0 km/h (1 Bft) NO 45 -6,1 C 6,2 C
26.02.2012 16:52 6,1 C 41 % 1024,2 hPa 0,0 l/m 8,3 km/h (2 Bft) N-NO 22 -6,1 C 4,4 C
26.02.2012 16:57 5,9 C 41 % 1024,1 hPa 0,0 l/m 7,2 km/h (2 Bft) N 360 -6,3 C 4,4 C
26.02.2012 17:02 5,8 C 41 % 1024,4 hPa 0,0 l/m 8,3 km/h (2 Bft) N-NO 22 -6,4 C 4,0 C
26.02.2012 17:07 5,6 C 42 % 1024,4 hPa 0,0 l/m 6,1 km/h (2 Bft) NW 315 -6,3 C 4,4 C
26.02.2012 17:12 5,4 C 44 % 1024,4 hPa 0,0 l/m 5,4 km/h (1 Bft) N-NO 22 -5,9 C 4,4 C
26.02.2012 17:17 5,3 C 45 % 1024,6 hPa 0,0 l/m 8,6 km/h (2 Bft) N-NO 22 -5,7 C 3,3 C
26.02.2012 17:22 5,1 C 43 % 1024,7 hPa 0,0 l/m 5,8 km/h (2 Bft) NO 45 -6,4 C 3,9 C
26.02.2012 17:27 5,0 C 43 % 1024,8 hPa 0,0 l/m 6,5 km/h (2 Bft) N 360 -6,5 C 3,6 C
26.02.2012 17:32 4,9 C 42 % 1024,7 hPa 0,0 l/m 7,6 km/h (2 Bft) N-NO 22 -6,9 C 3,1 C
26.02.2012 17:37 4,8 C 43 % 1024,8 hPa 0,0 l/m 3,6 km/h (1 Bft) NO 45 -6,7 C 4,8 C
26.02.2012 17:42 4,6 C 44 % 1025,0 hPa 0,0 l/m 7,6 km/h (2 Bft) N 360 -6,6 C 2,8 C
26.02.2012 17:47 4,5 C 43 % 1025,0 hPa 0,0 l/m 6,1 km/h (2 Bft) N-NW 337 -7,0 C 3,1 C
26.02.2012 17:52 4,4 C 43 % 1024,9 hPa 0,0 l/m 6,5 km/h (2 Bft) N-NO 22 -7,1 C 2,9 C
26.02.2012 17:57 4,3 C 42 % 1025,0 hPa 0,0 l/m 6,5 km/h (2 Bft) N-NO 22 -7,5 C 2,8 C
26.02.2012 18:02 4,2 C 43 % 1025,0 hPa 0,0 l/m 4,3 km/h (1 Bft) N-NO 22 -7,2 C 4,2 C
26.02.2012 18:07 4,1 C 43 % 1025,2 hPa 0,0 l/m 7,9 km/h (2 Bft) NO 45 -7,3 C 2,1 C
26.02.2012 18:12 4,1 C 43 % 1025,3 hPa 0,0 l/m 4,0 km/h (1 Bft) N 360 -7,3 C 4,1 C
26.02.2012 18:17 3,9 C 43 % 1025,2 hPa 0,0 l/m 7,2 km/h (2 Bft) NO 45 -7,5 C 2,1 C
26.02.2012 18:22 3,9 C 43 % 1025,1 hPa 0,0 l/m 6,8 km/h (2 Bft) NO 45 -7,5 C 2,2 C
26.02.2012 18:27 3,8 C 44 % 1025,3 hPa 0,0 l/m 4,0 km/h (1 Bft) N-NO 22 -7,3 C 3,8 C
26.02.2012 18:32 3,6 C 44 % 1025,2 hPa 0,0 l/m 5,4 km/h (1 Bft) N 360 -7,5 C 2,3 C
26.02.2012 18:37 3,5 C 44 % 1025,3 hPa 0,0 l/m 5,0 km/h (1 Bft) N 360 -7,6 C 2,4 C
26.02.2012 18:42 3,4 C 44 % 1025,4 hPa 0,0 l/m 6,1 km/h (2 Bft) N-NO 22 -7,7 C 1,8 C
26.02.2012 18:47 3,3 C 45 % 1025,4 hPa 0,0 l/m 2,5 km/h (1 Bft) N 360 -7,5 C 3,3 C
26.02.2012 18:52 3,3 C 45 % 1025,5 hPa 0,0 l/m 4,7 km/h (1 Bft) N-NO 22 -7,5 C 2,3 C
26.02.2012 18:57 3,2 C 45 % 1025,3 hPa 0,0 l/m 4,0 km/h (1 Bft) NO 45 -7,6 C 3,2 C
26.02.2012 19:02 3,1 C 45 % 1025,5 hPa 0,0 l/m 4,3 km/h (1 Bft) NO 45 -7,7 C 3,1 C
26.02.2012 19:07 3,1 C 45 % 1025,5 hPa 0,0 l/m 4,3 km/h (1 Bft) N-NO 22 -7,7 C 3,1 C
26.02.2012 19:12 2,9 C 45 % 1025,4 hPa 0,0 l/m 0,0 km/h (0 Bft) N-NO 22 -7,8 C 2,9 C
26.02.2012 19:17 2,9 C 46 % 1025,5 hPa 0,0 l/m 2,5 km/h (1 Bft) N 360 -7,6 C 2,9 C
26.02.2012 19:22 2,8 C 46 % 1025,6 hPa 0,0 l/m 0,0 km/h (0 Bft) N 360 -7,6 C 2,8 C
26.02.2012 19:27 2,7 C 46 % 1025,7 hPa 0,0 l/m 1,4 km/h (1 Bft) W-NW 292 -7,7 C 2,7 C
26.02.2012 19:32 2,6 C 47 % 1025,6 hPa 0,0 l/m 2,5 km/h (1 Bft) N-NO 22 -7,6 C 2,6 C
26.02.2012 19:37 2,5 C 48 % 1025,6 hPa 0,0 l/m 3,2 km/h (1 Bft) N 360 -7,4 C 2,5 C
26.02.2012 19:42 2,4 C 48 % 1025,6 hPa 0,0 l/m 1,8 km/h (1 Bft) N-NO 22 -7,5 C 2,4 C
26.02.2012 19:47 2,4 C 49 % 1025,8 hPa 0,0 l/m 4,0 km/h (1 Bft) N 360 -7,2 C 2,4 C
26.02.2012 19:52 2,3 C 49 % 1025,6 hPa 0,0 l/m 2,5 km/h (1 Bft) N-NO 22 -7,3 C 2,3 C
26.02.2012 19:57 2,2 C 49 % 1025,6 hPa 0,0 l/m 3,6 km/h (1 Bft) NO 45 -7,4 C 2,2 C
26.02.2012 20:02 2,2 C 49 % 1025,8 hPa 0,0 l/m 2,5 km/h (1 Bft) N 360 -7,4 C 2,2 C
26.02.2012 20:07 2,1 C 49 % 1025,7 hPa 0,0 l/m 4,7 km/h (1 Bft) O-NO 67 -7,5 C 0,9 C
26.02.2012 20:12 2,1 C 49 % 1025,9 hPa 0,0 l/m 2,5 km/h (1 Bft) N-NO 22 -7,5 C 2,1 C
26.02.2012 20:17 2,1 C 50 % 1025,7 hPa 0,0 l/m 2,5 km/h (1 Bft) N 360 -7,2 C 2,1 C
26.02.2012 20:22 1,9 C 50 % 1025,9 hPa 0,0 l/m 4,7 km/h (1 Bft) NO 45 -7,4 C 0,7 C
26.02.2012 20:27 1,9 C 50 % 1026,0 hPa 0,0 l/m 3,2 km/h (1 Bft) N 360 -7,4 C 1,9 C
26.02.2012 20:32 1,9 C 50 % 1026,1 hPa 0,0 l/m 4,7 km/h (1 Bft) N-NO 22 -7,4 C 0,7 C
26.02.2012 20:37 1,9 C 51 % 1026,1 hPa 0,0 l/m 3,2 km/h (1 Bft) NO 45 -7,1 C 1,9 C
26.02.2012 20:42 1,8 C 52 % 1026,2 hPa 0,0 l/m 2,2 km/h (1 Bft) N-NO 22 -7,0 C 1,8 C
26.02.2012 20:47 1,8 C 53 % 1026,2 hPa 0,0 l/m 4,7 km/h (1 Bft) N-NO 22 -6,7 C 0,6 C
26.02.2012 20:52 1,6 C 53 % 1026,2 hPa 0,0 l/m 2,9 km/h (1 Bft) N 360 -6,9 C 1,6 C
26.02.2012 20:57 1,5 C 54 % 1026,4 hPa 0,0 l/m 4,0 km/h (1 Bft) NO 45 -6,8 C 1,5 C
26.02.2012 21:02 1,4 C 54 % 1026,6 hPa 0,0 l/m 4,7 km/h (1 Bft) N 360 -6,9 C 0,1 C
26.02.2012 21:07 1,3 C 55 % 1026,5 hPa 0,0 l/m 4,7 km/h (1 Bft) NO 45 -6,7 C 0,0 C
26.02.2012 21:12 1,3 C 55 % 1026,5 hPa 0,0 l/m 0,0 km/h (0 Bft) N-NW 337 -6,7 C 1,3 C
26.02.2012 21:17 1,3 C 55 % 1026,6 hPa 0,0 l/m 3,2 km/h (1 Bft) NO 45 -6,7 C 1,3 C
26.02.2012 21:22 1,2 C 56 % 1026,4 hPa 0,0 l/m 2,2 km/h (1 Bft) N 360 -6,6 C 1,2 C
26.02.2012 21:27 1,1 C 57 % 1026,7 hPa 0,0 l/m 0,0 km/h (0 Bft) N-NO 22 -6,4 C 1,1 C
26.02.2012 21:32 1,1 C 58 % 1026,7 hPa 0,0 l/m 3,6 km/h (1 Bft) N-NW 337 -6,2 C 1,1 C
26.02.2012 21:37 1,0 C 59 % 1026,7 hPa 0,0 l/m 1,8 km/h (1 Bft) N 360 -6,1 C 1,0 C
26.02.2012 21:42 0,9 C 59 % 1026,7 hPa 0,0 l/m 1,8 km/h (1 Bft) O-NO 67 -6,2 C 0,9 C
26.02.2012 21:47 0,9 C 60 % 1026,7 hPa 0,0 l/m 1,8 km/h (1 Bft) NW 315 -6,0 C 0,9 C
26.02.2012 21:52 0,8 C 60 % 1026,8 hPa 0,0 l/m 1,4 km/h (1 Bft) N-NW 337 -6,1 C 0,8 C
26.02.2012 21:57 0,8 C 61 % 1026,9 hPa 0,0 l/m 0,0 km/h (0 Bft) W-NW 292 -5,8 C 0,8 C
26.02.2012 22:02 0,7 C 62 % 1026,7 hPa 0,0 l/m 0,0 km/h (0 Bft) NO 45 -5,7 C 0,7 C
26.02.2012 22:07 0,7 C 62 % 1026,8 hPa 0,0 l/m 2,2 km/h (1 Bft) NW 315 -5,7 C 0,7 C
26.02.2012 22:12 0,6 C 62 % 1026,6 hPa 0,0 l/m 0,0 km/h (0 Bft) NW 315 -5,8 C 0,6 C
26.02.2012 22:17 0,6 C 63 % 1026,8 hPa 0,0 l/m 1,8 km/h (1 Bft) NO 45 -5,6 C 0,6 C
26.02.2012 22:22 0,5 C 63 % 1026,6 hPa 0,0 l/m 0,0 km/h (0 Bft) N-NW 337 -5,7 C 0,5 C
26.02.2012 22:27 0,5 C 64 % 1026,6 hPa 0,0 l/m 0,0 km/h (0 Bft) NW 315 -5,5 C 0,5 C
26.02.2012 22:32 0,5 C 64 % 1026,8 hPa 0,0 l/m 0,0 km/h (0 Bft) W-NW 292 -5,5 C 0,5 C
26.02.2012 22:37 0,4 C 64 % 1026,8 hPa 0,0 l/m 1,4 km/h (1 Bft) NW 315 -5,6 C 0,4 C
26.02.2012 22:42 0,4 C 64 % 1026,8 hPa 0,0 l/m 0,0 km/h (0 Bft) NW 315 -5,6 C 0,4 C
26.02.2012 22:47 0,4 C 65 % 1026,9 hPa 0,0 l/m 0,0 km/h (0 Bft) NW 315 -5,4 C 0,4 C
26.02.2012 22:52 0,4 C 65 % 1026,9 hPa 0,0 l/m 0,0 km/h (0 Bft) NW 315 -5,4 C 0,4 C
26.02.2012 22:57 0,4 C 65 % 1026,8 hPa 0,0 l/m 2,2 km/h (1 Bft) NW 315 -5,4 C 0,4 C
26.02.2012 23:02 0,5 C 65 % 1026,7 hPa 0,0 l/m 1,8 km/h (1 Bft) NW 315 -5,3 C 0,5 C
26.02.2012 23:07 0,5 C 66 % 1026,8 hPa 0,0 l/m 0,0 km/h (0 Bft) NW 315 -5,1 C 0,5 C
26.02.2012 23:12 0,5 C 66 % 1026,8 hPa 0,0 l/m 3,6 km/h (1 Bft) N-NW 337 -5,1 C 0,5 C
26.02.2012 23:17 0,5 C 66 % 1026,9 hPa 0,0 l/m 3,2 km/h (1 Bft) NO 45 -5,1 C 0,5 C
26.02.2012 23:22 0,6 C 66 % 1026,9 hPa 0,0 l/m 0,0 km/h (0 Bft) NW 315 -5,0 C 0,6 C
26.02.2012 23:27 0,6 C 66 % 1026,7 hPa 0,0 l/m 1,1 km/h (1 Bft) NW 315 -5,0 C 0,6 C
26.02.2012 23:32 0,6 C 66 % 1026,9 hPa 0,0 l/m 0,0 km/h (0 Bft) N 360 -5,0 C 0,6 C
26.02.2012 23:37 0,7 C 66 % 1026,9 hPa 0,0 l/m 2,5 km/h (1 Bft) N-NO 22 -4,9 C 0,7 C
26.02.2012 23:42 0,7 C 66 % 1026,7 hPa 0,0 l/m 0,0 km/h (0 Bft) N 360 -4,9 C 0,7 C
26.02.2012 23:47 0,7 C 66 % 1026,9 hPa 0,0 l/m 0,0 km/h (0 Bft) N-NO 22 -4,9 C 0,7 C
26.02.2012 23:52 0,7 C 66 % 1027,0 hPa 0,0 l/m 1,4 km/h (1 Bft) N 360 -4,9 C 0,7 C
26.02.2012 23:57 0,7 C 67 % 1026,8 hPa 0,0 l/m 0,0 km/h (0 Bft) N-NO 22 -4,7 C 0,7 C
_ Min-Zeit 22:37 16:47 00:17 - 06:07 - - 19:12 21:07
Minimum _ 0,4 C 41 % 1017,1 hPa - 0,0 km/h (0 Bft) - - -7,8 C 0,0 C
_ Max-Zeit 15:17 03:57 23:52 02:07 01:12 - - 01:47 15:12
Maximum _ 7,3 C 90 % 1027,0 hPa 1,0 l/m 27,7 km/h
NW (4 Bft)
- - 3,1 C 7,2 C
Durchschnitt _ 4,3 C 69 % 1021,9 hPa #7,3 l/m 6,8 km/h (2 Bft) N-NO - -1,3 C 3,0 C
(c) by David Heller